Portada
METAR-TAF:

METAR-TAF

Aeroports :

Marathon, Florida, Estats Units d'Amèrica

latitud: 24-43-33N, longitud: 081-02-52W, altitud: 2 m

Observació

L'informe es va fer fa 1 hora i 17 minuts, a les 22:53 UTC
Vent 15 kt del Est
Temperatura 30°C
Humitat 66%
Pressió 1014 hPa
Visibilitat: 16.1 km
Cel clar

METAR: KMTH 192253Z AUTO 08015KT 10SM CLR 30/23 A2993 RMK AO2 LTG DSNT S SLP135 T03000233 $

Hora: 20:10 (00:10 UTC)

Pronòstic

L'informe es va fer fa 50 minuts, a les 23:20 UTC
Pronòstic vàlid del 20 a les 00 UTC al 20 a les 24 UTC
Vent 15 kt del Est amb ràfegues de 22 kt
Visibilitat: 10 km
Núvols disperses a una alçada de 2300 ft

TAF: KMTH 192320Z 2000/2024 08015G22KT P6SM SCT023

Observacions i pronòstics meteorològics de més de 4000 aeroports (METAR i TAF).

Les estacions disponibles són els punts grocs i vermells al mapa.

Posi el ratolí al punt desitjat per veure el nom de l'estació.

Feu clic per veure les observacions i els pronòstics meteorològics.

Per canviar el mapa: feu clic els botons verds amb una creu de color negre per apropar; al botó verd amb un guió per allunyar la imatge; o en les fletxes verdes per a mapes adjacents.


METAR-TAF: